createdAt,value
2023-03-27T00:01:13.433Z,4.10
2023-03-27T00:03:41.025Z,3.40
2023-03-27T00:06:17.026Z,3.10
2023-03-27T00:08:46.811Z,3.05
2023-03-27T00:11:15.852Z,2.65
2023-03-27T00:13:50.520Z,3.35
2023-03-27T00:16:18.408Z,2.33
2023-03-27T00:18:45.701Z,2.50
2023-03-27T00:21:12.805Z,3.25
2023-03-27T00:23:40.328Z,2.08
2023-03-27T00:26:07.563Z,2.60
2023-03-27T00:28:35.446Z,2.20
2023-03-27T00:31:04.498Z,2.42
2023-03-27T00:33:31.996Z,2.50
2023-03-27T00:35:58.969Z,2.15
2023-03-27T00:38:26.719Z,2.22
2023-03-27T00:40:56.128Z,1.70
2023-03-27T00:43:26.234Z,3.05
2023-03-27T00:45:57.191Z,1.90
2023-03-27T00:48:26.742Z,2.53
2023-03-27T00:50:54.885Z,1.98
2023-03-27T00:53:27.400Z,2.10
2023-03-27T00:56:01.514Z,2.13
2023-03-27T00:58:32.296Z,2.30
2023-03-27T01:00:59.754Z,3.35
2023-03-27T01:03:32.308Z,1.55
2023-03-27T01:06:02.678Z,2.10
2023-03-27T01:08:33.731Z,1.77
2023-03-27T01:11:15.733Z,2.80
2023-03-27T01:14:01.694Z,1.70
2023-03-27T01:16:38.549Z,2.60
2023-03-27T01:19:55.320Z,2.47
2023-03-27T01:23:07.078Z,1.63
2023-03-27T01:26:05.856Z,1.80
2023-03-27T01:28:43.804Z,1.60
2023-03-27T01:31:32.345Z,1.70
2023-03-27T01:34:36.876Z,2.38
2023-03-27T01:37:25.429Z,1.80
2023-03-27T01:40:01.193Z,1.73
2023-03-27T01:42:35.386Z,2.33
2023-03-27T01:45:06.537Z,2.47
2023-03-27T01:47:43.265Z,1.45
2023-03-27T01:50:19.811Z,1.67
2023-03-27T01:52:54.557Z,1.90
2023-03-27T01:55:29.205Z,2.60
2023-03-27T01:58:03.081Z,1.70
2023-03-27T02:00:52.533Z,1.80
2023-03-27T02:03:24.380Z,2.72
2023-03-27T02:05:56.932Z,1.98
2023-03-27T02:08:32.286Z,2.55
2023-03-27T02:11:01.334Z,1.90
2023-03-27T02:13:36.114Z,1.55
2023-03-27T02:16:07.369Z,2.17
2023-03-27T02:18:38.281Z,1.73
2023-03-27T02:21:06.680Z,2.10
2023-03-27T02:23:33.586Z,1.98
2023-03-27T02:26:02.623Z,1.75
2023-03-27T02:29:02.594Z,2.42
2023-03-27T02:31:50.377Z,1.42
2023-03-27T02:34:38.569Z,1.88
2023-03-27T02:37:17.520Z,2.10
2023-03-27T02:39:55.535Z,1.45
2023-03-27T02:42:33.964Z,1.67
2023-03-27T02:45:10.695Z,1.92
2023-03-27T02:47:42.263Z,1.70
2023-03-27T02:50:15.197Z,1.98
2023-03-27T02:52:47.241Z,1.85
2023-03-27T02:55:19.988Z,1.48
2023-03-27T02:57:53.780Z,2.10
2023-03-27T03:00:25.711Z,1.40
2023-03-27T03:03:06.117Z,1.70
2023-03-27T03:05:34.245Z,1.60
2023-03-27T03:08:01.544Z,1.70
2023-03-27T03:10:29.035Z,1.75
2023-03-27T03:12:57.875Z,1.60
2023-03-27T03:15:24.830Z,1.40
2023-03-27T03:17:52.463Z,1.15
2023-03-27T03:20:19.902Z,1.63
2023-03-27T03:22:46.818Z,1.65
2023-03-27T03:25:15.135Z,1.90
2023-03-27T03:27:44.175Z,1.30
2023-03-27T03:30:16.535Z,1.60
2023-03-27T03:32:45.243Z,1.60
2023-03-27T03:35:13.749Z,1.50
2023-03-27T03:37:41.262Z,1.48
2023-03-27T03:40:13.165Z,1.73
2023-03-27T03:42:45.551Z,2.10
2023-03-27T03:45:14.064Z,1.77
2023-03-27T03:47:41.708Z,1.55
2023-03-27T03:50:10.400Z,1.70
2023-03-27T03:52:37.938Z,2.15
2023-03-27T03:55:07.291Z,1.40
2023-03-27T03:57:34.753Z,1.77
2023-03-27T04:00:02.292Z,1.60
2023-03-27T04:02:30.888Z,2.13
2023-03-27T04:04:59.785Z,1.73
2023-03-27T04:07:35.668Z,1.80
2023-03-27T04:10:03.798Z,1.92
2023-03-27T04:12:31.473Z,1.58
2023-03-27T04:14:58.455Z,1.40
2023-03-27T04:17:28.923Z,2.03
2023-03-27T04:19:57.790Z,2.70
2023-03-27T04:22:26.185Z,1.80
2023-03-27T04:24:53.710Z,1.90
2023-03-27T04:27:21.754Z,1.63
2023-03-27T04:29:49.189Z,2.17
2023-03-27T04:32:19.361Z,1.75
2023-03-27T04:34:48.772Z,1.40
2023-03-27T04:37:18.389Z,1.60
2023-03-27T04:39:50.912Z,1.63
2023-03-27T04:42:18.379Z,1.58
2023-03-27T04:44:46.481Z,1.20
2023-03-27T04:47:13.609Z,3.20
2023-03-27T04:49:42.233Z,1.98
2023-03-27T04:52:10.671Z,1.77
2023-03-27T04:54:39.429Z,1.80
2023-03-27T04:57:07.532Z,1.70
2023-03-27T04:59:34.584Z,1.30
2023-03-27T05:02:02.018Z,2.22
2023-03-27T05:04:30.370Z,1.65
2023-03-27T05:06:59.972Z,1.75
2023-03-27T05:09:26.977Z,2.13
2023-03-27T05:11:55.658Z,1.90
2023-03-27T05:14:23.563Z,2.00
2023-03-27T05:16:52.314Z,2.17
2023-03-27T05:19:20.857Z,1.60
2023-03-27T05:21:48.088Z,1.85
2023-03-27T05:24:16.565Z,1.50
2023-03-27T05:26:44.002Z,1.55
2023-03-27T05:29:12.234Z,2.25
2023-03-27T05:31:39.940Z,1.85
2023-03-27T05:34:06.842Z,2.13
2023-03-27T05:36:35.785Z,2.45
2023-03-27T05:39:04.514Z,2.08
2023-03-27T05:41:31.652Z,2.25
2023-03-27T05:43:58.660Z,2.03
2023-03-27T05:46:27.560Z,2.38
2023-03-27T05:48:54.671Z,2.10
2023-03-27T05:51:22.419Z,2.35
2023-03-27T05:53:49.391Z,2.45
2023-03-27T05:56:16.401Z,2.22
2023-03-27T05:58:43.427Z,2.40
2023-03-27T06:01:11.129Z,1.90
2023-03-27T06:03:40.114Z,2.28
2023-03-27T06:06:08.559Z,2.47
2023-03-27T06:08:36.628Z,2.30
2023-03-27T06:11:09.752Z,2.42
2023-03-27T06:13:37.493Z,2.85
2023-03-27T06:16:06.174Z,2.72
2023-03-27T06:18:34.484Z,2.50
2023-03-27T06:21:03.214Z,3.10
2023-03-27T06:23:30.680Z,2.63
2023-03-27T06:25:58.608Z,3.28
2023-03-27T06:28:25.920Z,3.22
2023-03-27T06:30:52.941Z,2.80
2023-03-27T06:33:20.225Z,3.63
2023-03-27T06:35:53.203Z,2.83
2023-03-27T06:38:21.999Z,2.70
2023-03-27T06:40:49.453Z,2.60
2023-03-27T06:43:19.018Z,2.70
2023-03-27T06:45:49.051Z,2.95
2023-03-27T06:48:20.411Z,2.25
2023-03-27T06:50:51.225Z,3.25
2023-03-27T06:53:27.361Z,2.47
2023-03-27T06:55:57.878Z,2.53
2023-03-27T06:58:25.202Z,2.90
2023-03-27T07:00:52.273Z,3.30
2023-03-27T07:03:22.141Z,2.63
2023-03-27T07:05:49.748Z,3.40
2023-03-27T07:13:34.796Z,2.75
2023-03-27T07:16:02.016Z,3.00
2023-03-27T07:18:29.171Z,3.10
2023-03-27T07:20:56.812Z,3.03
2023-03-27T07:23:24.050Z,3.00
2023-03-27T07:25:52.531Z,2.90
2023-03-27T07:28:21.025Z,2.83
2023-03-27T07:30:48.477Z,2.92
2023-03-27T07:33:15.860Z,2.88
2023-03-27T07:35:43.887Z,2.78
2023-03-27T07:38:11.378Z,3.00
2023-03-27T07:40:40.312Z,2.40
2023-03-27T07:45:54.299Z,2.30
2023-03-27T07:48:21.606Z,2.38
2023-03-27T07:50:48.604Z,2.17
2023-03-27T07:53:32.756Z,3.67
2023-03-27T07:56:01.804Z,2.20
2023-03-27T07:58:28.875Z,2.60
2023-03-27T08:01:02.499Z,2.70
2023-03-27T08:03:31.442Z,2.60
2023-03-27T08:07:30.888Z,2.23
2023-03-27T08:09:58.124Z,1.90
2023-03-27T08:12:25.345Z,2.53
2023-03-27T08:14:54.923Z,2.07
2023-03-27T08:17:22.407Z,2.23
2023-03-27T08:19:53.020Z,2.03
2023-03-27T08:22:21.939Z,2.50
2023-03-27T08:24:50.370Z,2.17
2023-03-27T08:27:18.175Z,1.97
2023-03-27T08:29:45.388Z,1.63
2023-03-27T08:32:12.520Z,1.87
2023-03-27T08:34:40.837Z,2.13
2023-03-27T08:37:08.851Z,1.80
2023-03-27T08:39:36.549Z,1.93
2023-03-27T08:42:08.492Z,1.90
2023-03-27T08:44:36.866Z,1.70
2023-03-27T08:47:12.523Z,1.63
2023-03-27T08:49:44.997Z,1.73
2023-03-27T08:52:16.329Z,2.03
2023-03-27T08:54:46.440Z,2.33
2023-03-27T08:57:20.084Z,1.97
2023-03-27T08:59:47.401Z,1.70
2023-03-27T09:02:38.384Z,1.50
2023-03-27T09:05:13.640Z,1.43
2023-03-27T09:07:48.411Z,1.60
2023-03-27T09:10:24.287Z,2.10
2023-03-27T09:13:08.277Z,1.53
2023-03-27T09:15:56.785Z,2.20
2023-03-27T09:18:29.464Z,1.97
2023-03-27T09:21:01.824Z,1.63
2023-03-27T09:23:36.089Z,1.87
2023-03-27T09:26:10.507Z,1.80
2023-03-27T09:28:50.596Z,1.50
2023-03-27T09:31:29.071Z,2.00
2023-03-27T09:34:00.982Z,2.40
2023-03-27T09:36:28.920Z,1.60
2023-03-27T09:39:04.397Z,2.05
2023-03-27T09:41:37.418Z,1.52
2023-03-27T09:44:10.813Z,1.30
2023-03-27T09:46:43.301Z,1.55
2023-03-27T09:49:14.003Z,1.38
2023-03-27T09:51:44.412Z,1.75
2023-03-27T09:54:14.810Z,1.45
2023-03-27T09:56:44.519Z,1.45
2023-03-27T09:59:24.494Z,1.30
2023-03-27T10:01:55.787Z,1.48
2023-03-27T10:04:25.687Z,1.30
2023-03-27T10:07:01.424Z,1.70
2023-03-27T10:09:32.532Z,1.80
2023-03-27T10:12:10.166Z,1.53
2023-03-27T10:14:42.737Z,1.60
2023-03-27T10:17:21.302Z,1.37
2023-03-27T10:19:50.985Z,1.57
2023-03-27T10:22:25.842Z,1.50
2023-03-27T10:24:53.590Z,1.53
2023-03-27T10:27:26.210Z,1.40
2023-03-27T10:29:54.606Z,0.93
2023-03-27T10:32:44.528Z,1.57
2023-03-27T10:35:23.799Z,1.60
2023-03-27T10:37:53.113Z,1.85
2023-03-27T10:40:25.223Z,2.10
2023-03-27T10:42:56.075Z,1.80
2023-03-27T10:45:24.840Z,2.03
2023-03-27T10:47:56.976Z,2.45
2023-03-27T10:50:32.135Z,1.88
2023-03-27T10:53:06.326Z,2.00
2023-03-27T10:55:44.947Z,2.30
2023-03-27T10:58:26.530Z,1.90
2023-03-27T11:01:02.001Z,1.73
2023-03-27T11:03:34.436Z,2.03
2023-03-27T11:06:06.744Z,1.60
2023-03-27T11:08:49.596Z,1.60
2023-03-27T11:11:21.770Z,1.73
2023-03-27T11:13:49.191Z,1.70
2023-03-27T11:16:25.109Z,1.50
2023-03-27T11:18:58.563Z,1.80
2023-03-27T11:21:36.128Z,2.07
2023-03-27T11:24:07.552Z,2.00
2023-03-27T11:26:42.274Z,2.00
2023-03-27T11:29:18.042Z,2.00
2023-03-27T11:31:49.522Z,2.70
2023-03-27T11:34:28.374Z,2.70
2023-03-27T11:37:01.846Z,1.90
2023-03-27T11:39:36.461Z,2.10
2023-03-27T11:42:14.599Z,2.00
2023-03-27T11:44:41.873Z,2.20
2023-03-27T11:47:32.101Z,2.45
2023-03-27T11:50:25.493Z,2.60
2023-03-27T11:53:26.407Z,2.20
2023-03-27T11:56:24.661Z,2.60
2023-03-27T11:59:08.524Z,2.70
2023-03-27T12:01:43.254Z,2.40
2023-03-27T12:04:34.090Z,1.75
2023-03-27T12:07:12.193Z,2.00
2023-03-27T12:09:59.676Z,1.80
2023-03-27T12:16:02.471Z,2.00
2023-03-27T12:18:54.520Z,1.65
2023-03-27T12:21:55.826Z,1.60
2023-03-27T12:24:57.092Z,1.60
2023-03-27T12:27:41.057Z,3.13
2023-03-27T12:30:24.521Z,1.70
2023-03-27T12:33:40.557Z,1.80
2023-03-27T12:36:13.660Z,1.40
2023-03-27T12:38:43.949Z,1.57
2023-03-27T12:41:23.158Z,1.80
2023-03-27T12:43:56.661Z,1.53
2023-03-27T12:46:37.402Z,1.30
2023-03-27T12:49:48.181Z,1.30
2023-03-27T12:52:16.028Z,1.60
2023-03-27T12:55:33.174Z,1.50
2023-03-27T13:00:53.983Z,1.30
2023-03-27T13:03:57.159Z,1.20
2023-03-27T13:06:41.437Z,1.50
2023-03-27T13:09:42.310Z,1.60
2023-03-27T13:12:51.394Z,1.60
2023-03-27T13:15:57.505Z,1.30
2023-03-27T13:18:44.537Z,1.50
2023-03-27T13:21:22.948Z,1.60
2023-03-27T13:24:14.563Z,1.30
2023-03-27T13:26:56.625Z,1.43
2023-03-27T13:29:30.733Z,1.70
2023-03-27T13:32:31.360Z,1.60
2023-03-27T13:35:24.215Z,1.90
2023-03-27T13:38:00.646Z,1.60
2023-03-27T13:40:30.996Z,1.67
2023-03-27T13:43:21.626Z,1.60
2023-03-27T13:45:53.929Z,1.88
2023-03-27T13:48:57.616Z,1.55
2023-03-27T13:52:00.730Z,1.88
2023-03-27T13:54:56.502Z,1.92
2023-03-27T13:57:47.295Z,2.00
2023-03-27T14:00:52.228Z,1.83
2023-03-27T14:03:50.316Z,2.00
2023-03-27T14:07:05.128Z,2.17
2023-03-27T14:09:47.983Z,2.80
2023-03-27T14:12:20.435Z,2.15
2023-03-27T14:15:13.728Z,1.70
2023-03-27T14:18:09.221Z,2.40
2023-03-27T14:20:42.325Z,2.38
2023-03-27T14:23:16.501Z,2.40
2023-03-27T14:25:47.873Z,2.47
2023-03-27T14:28:32.019Z,1.77
2023-03-27T14:31:04.290Z,1.80
2023-03-27T14:33:34.427Z,2.58
2023-03-27T14:36:05.806Z,3.37
2023-03-27T14:38:34.901Z,2.87
2023-03-27T14:41:05.193Z,1.80
2023-03-27T14:43:32.602Z,1.83
2023-03-27T14:46:04.595Z,2.30
2023-03-27T14:48:37.092Z,1.88
2023-03-27T14:51:09.499Z,1.67
2023-03-27T14:53:44.288Z,1.57
2023-03-27T14:56:24.449Z,1.40
2023-03-27T15:01:40.439Z,1.30
2023-03-27T15:04:11.302Z,1.55
2023-03-27T15:06:38.429Z,1.48
2023-03-27T15:09:14.671Z,1.52
2023-03-27T15:11:46.095Z,1.30
2023-03-27T15:14:16.671Z,1.33
2023-03-27T15:16:48.640Z,1.50
2023-03-27T15:19:23.009Z,1.58
2023-03-27T15:21:56.960Z,1.17
2023-03-27T15:24:34.562Z,0.98
2023-03-27T15:27:02.332Z,1.10
2023-03-27T15:29:41.019Z,1.27
2023-03-27T15:32:14.634Z,1.20
2023-03-27T15:34:49.314Z,1.00
2023-03-27T15:37:19.704Z,1.23
2023-03-27T15:40:09.464Z,1.80
2023-03-27T15:42:47.461Z,1.25
2023-03-27T15:45:16.832Z,1.50
2023-03-27T15:47:45.453Z,1.30
2023-03-27T15:50:21.048Z,1.30
2023-03-27T15:52:49.749Z,1.10
2023-03-27T15:55:37.322Z,1.50
2023-03-27T15:58:20.767Z,1.20
2023-03-27T16:00:51.531Z,1.27
2023-03-27T16:03:22.725Z,1.10
2023-03-27T16:05:54.823Z,1.50
2023-03-27T16:08:28.887Z,1.70
2023-03-27T16:10:56.372Z,1.65
2023-03-27T16:13:33.600Z,2.00
2023-03-27T16:16:03.564Z,2.03
2023-03-27T16:18:34.144Z,1.80
2023-03-27T16:21:13.150Z,1.80
2023-03-27T16:23:40.838Z,2.00
2023-03-27T16:26:13.357Z,1.60
2023-03-27T16:28:40.974Z,1.47
2023-03-27T16:31:15.075Z,1.90
2023-03-27T16:33:45.792Z,2.20
2023-03-27T16:36:16.746Z,2.33
2023-03-27T16:38:44.480Z,1.70
2023-03-27T16:41:13.669Z,1.50
2023-03-27T16:43:41.203Z,1.90
2023-03-27T16:46:17.661Z,2.00
2023-03-27T16:48:45.646Z,1.90
2023-03-27T16:51:14.654Z,1.98
2023-03-27T16:53:41.641Z,2.25
2023-03-27T16:56:09.445Z,2.58
2023-03-27T16:58:36.612Z,2.80
2023-03-27T17:01:06.962Z,2.17
2023-03-27T17:03:37.040Z,2.00
2023-03-27T17:06:08.275Z,2.10
2023-03-27T17:08:37.079Z,2.20
2023-03-27T17:11:06.998Z,2.00
2023-03-27T17:13:34.697Z,3.30
2023-03-27T17:16:02.722Z,1.70
2023-03-27T17:18:29.961Z,1.60
2023-03-27T17:20:57.633Z,2.20
2023-03-27T17:23:24.771Z,2.40
2023-03-27T17:25:53.128Z,2.30
2023-03-27T17:28:20.641Z,1.80
2023-03-27T17:31:00.883Z,1.60
2023-03-27T17:33:30.864Z,1.92
2023-03-27T17:35:58.017Z,2.47
2023-03-27T17:38:26.698Z,2.30
2023-03-27T17:40:55.232Z,2.60
2023-03-27T17:43:22.525Z,2.42
2023-03-27T17:45:51.022Z,1.80
2023-03-27T17:48:18.070Z,1.65
2023-03-27T17:50:54.710Z,1.80
2023-03-27T17:53:29.291Z,1.40
2023-03-27T17:56:00.862Z,1.73
2023-03-27T17:58:28.694Z,2.17
2023-03-27T18:00:56.728Z,1.92
2023-03-27T18:03:24.501Z,2.42
2023-03-27T18:05:52.133Z,1.80
2023-03-27T18:08:20.022Z,1.65
2023-03-27T18:10:50.576Z,2.00
2023-03-27T18:13:19.481Z,1.40
2023-03-27T18:15:47.373Z,1.77
2023-03-27T18:18:14.754Z,2.00
2023-03-27T18:20:41.802Z,1.90
2023-03-27T18:23:09.138Z,1.70
2023-03-27T18:25:41.801Z,2.00
2023-03-27T18:28:10.148Z,2.00
2023-03-27T18:30:38.707Z,1.90
2023-03-27T18:33:06.143Z,2.53
2023-03-27T18:35:36.309Z,2.10
2023-03-27T18:38:03.684Z,1.90
2023-03-27T18:40:33.596Z,2.70
2023-03-27T18:43:00.885Z,2.90
2023-03-27T18:45:27.980Z,2.60
2023-03-27T18:47:56.330Z,2.15
2023-03-27T18:50:23.692Z,2.00
2023-03-27T18:52:50.988Z,2.88
2023-03-27T18:55:19.315Z,2.03
2023-03-27T18:57:46.389Z,2.00
2023-03-27T19:00:18.440Z,1.65
2023-03-27T19:02:46.110Z,2.60
2023-03-27T19:05:16.086Z,2.60
2023-03-27T19:07:44.851Z,2.33
2023-03-27T19:10:13.899Z,2.45
2023-03-27T19:12:40.923Z,2.10
2023-03-27T19:15:19.237Z,2.70
2023-03-27T19:17:47.460Z,2.25
2023-03-27T19:20:16.157Z,2.47
2023-03-27T19:22:43.226Z,2.10
2023-03-27T19:25:11.874Z,2.15
2023-03-27T19:27:39.360Z,3.40
2023-03-27T19:30:08.865Z,2.80
2023-03-27T19:32:36.370Z,3.17
2023-03-27T19:35:04.621Z,3.70
2023-03-27T19:37:34.033Z,3.25
2023-03-27T19:40:01.784Z,3.40
2023-03-27T19:42:29.897Z,2.95
2023-03-27T19:44:57.380Z,2.90
2023-03-27T19:47:24.366Z,3.05
2023-03-27T19:49:51.354Z,2.42
2023-03-27T19:52:19.833Z,2.25
2023-03-27T19:54:48.296Z,2.80
2023-03-27T19:57:15.858Z,4.40
2023-03-27T19:59:42.985Z,3.72
2023-03-27T20:02:11.765Z,3.22
2023-03-27T20:04:39.113Z,2.90
2023-03-27T20:07:07.550Z,2.25
2023-03-27T20:09:34.759Z,2.40
2023-03-27T20:12:04.198Z,2.15
2023-03-27T20:14:31.260Z,2.22
2023-03-27T20:16:58.769Z,2.85
2023-03-27T20:19:30.454Z,2.40
2023-03-27T20:21:57.778Z,1.98
2023-03-27T20:24:24.869Z,2.33
2023-03-27T20:26:54.767Z,2.90
2023-03-27T20:29:24.309Z,2.45
2023-03-27T20:31:51.582Z,1.90
2023-03-27T20:34:20.008Z,2.22
2023-03-27T20:36:47.634Z,2.20
2023-03-27T20:39:14.889Z,2.40
2023-03-27T20:41:42.290Z,2.88
2023-03-27T20:44:15.145Z,2.30
2023-03-27T20:46:52.307Z,2.90
2023-03-27T20:51:57.430Z,2.40
2023-03-27T20:54:24.502Z,2.35
2023-03-27T20:56:51.821Z,2.28
2023-03-27T20:59:19.008Z,2.25
2023-03-27T21:01:47.680Z,1.77
2023-03-27T21:04:15.285Z,2.20
2023-03-27T21:06:43.166Z,1.95
2023-03-27T21:09:13.789Z,1.80
2023-03-27T21:11:41.170Z,1.85
2023-03-27T21:14:08.281Z,2.00
2023-03-27T21:16:35.382Z,2.75
2023-03-27T21:19:04.070Z,1.67
2023-03-27T21:21:32.334Z,2.03
2023-03-27T21:23:59.326Z,2.28
2023-03-27T21:26:26.266Z,1.75
2023-03-27T21:28:53.380Z,1.83
2023-03-27T21:31:20.759Z,2.22
2023-03-27T21:33:48.092Z,3.13
2023-03-27T21:36:16.486Z,2.92
2023-03-27T21:38:43.724Z,2.92
2023-03-27T21:41:13.512Z,2.75
2023-03-27T21:43:40.993Z,2.60
2023-03-27T21:46:08.626Z,3.30
2023-03-27T21:48:35.948Z,2.50
2023-03-27T21:51:05.621Z,1.90
2023-03-27T21:53:34.632Z,2.13
2023-03-27T21:56:02.232Z,2.33
2023-03-27T21:58:29.326Z,2.03
2023-03-27T22:00:57.436Z,2.13
2023-03-27T22:03:24.979Z,2.38
2023-03-27T22:06:01.482Z,2.00
2023-03-27T22:08:41.116Z,2.33
2023-03-27T22:11:08.643Z,2.80
2023-03-27T22:13:36.450Z,2.95
2023-03-27T22:16:08.927Z,2.10
2023-03-27T22:18:36.303Z,2.33
2023-03-27T22:21:17.250Z,2.50
2023-03-27T22:23:46.207Z,2.30
2023-03-27T22:26:13.606Z,2.10
2023-03-27T22:28:40.718Z,2.10
2023-03-27T22:31:08.656Z,2.28
2023-03-27T22:33:36.122Z,3.47
2023-03-27T22:36:03.724Z,2.72
2023-03-27T22:38:31.725Z,2.42
2023-03-27T22:41:00.718Z,2.47
2023-03-27T22:43:29.215Z,3.00
2023-03-27T22:45:56.960Z,2.95
2023-03-27T22:48:24.109Z,2.47
2023-03-27T22:50:55.636Z,2.60
2023-03-27T22:53:23.341Z,1.92
2023-03-27T22:55:51.239Z,2.40
2023-03-27T22:58:20.411Z,1.80
2023-03-27T23:00:49.335Z,1.80
2023-03-27T23:03:16.983Z,2.05
2023-03-27T23:05:47.094Z,2.10
2023-03-27T23:08:14.664Z,1.95
2023-03-27T23:10:41.766Z,2.28
2023-03-27T23:13:09.564Z,2.20
2023-03-27T23:15:38.652Z,2.60
2023-03-27T23:18:05.802Z,1.88
2023-03-27T23:20:33.112Z,2.15
2023-03-27T23:23:00.442Z,2.28
2023-03-27T23:28:12.264Z,1.90
2023-03-27T23:30:44.691Z,1.80
2023-03-27T23:33:12.290Z,1.90
2023-03-27T23:35:39.406Z,2.47
2023-03-27T23:38:06.360Z,1.85
2023-03-27T23:40:35.068Z,1.90
2023-03-27T23:43:02.021Z,2.53
2023-03-27T23:45:29.469Z,1.88
2023-03-27T23:47:57.786Z,1.90
2023-03-27T23:50:25.127Z,2.30
2023-03-27T23:52:52.112Z,2.08
2023-03-27T23:55:19.146Z,2.10
2023-03-27T23:57:46.584Z,2.38
